createdAt,value
2023-05-27T00:01:58.194Z,0.00
2023-05-27T00:05:00.378Z,0.00
2023-05-27T00:08:02.245Z,0.00
2023-05-27T00:11:03.842Z,0.00
2023-05-27T00:14:05.461Z,0.00
2023-05-27T00:17:07.196Z,0.00
2023-05-27T00:20:11.197Z,0.00
2023-05-27T00:23:12.834Z,0.00
2023-05-27T00:26:14.929Z,0.00
2023-05-27T00:29:19.949Z,0.00
2023-05-27T00:32:21.627Z,0.00
2023-05-27T00:35:23.298Z,0.00
2023-05-27T00:38:24.890Z,0.00
2023-05-27T00:41:27.585Z,0.00
2023-05-27T00:44:29.410Z,0.00
2023-05-27T00:47:34.163Z,0.00
2023-05-27T00:50:35.941Z,0.00
2023-05-27T00:53:42.489Z,0.00
2023-05-27T00:56:44.836Z,0.00
2023-05-27T00:59:46.635Z,0.00
2023-05-27T01:02:49.537Z,0.00
2023-05-27T01:06:01.562Z,0.00
2023-05-27T01:09:25.652Z,0.00
2023-05-27T01:12:42.058Z,0.00
2023-05-27T01:15:43.961Z,0.00
2023-05-27T01:18:46.238Z,0.00
2023-05-27T01:21:51.887Z,0.00
2023-05-27T01:24:53.786Z,0.00
2023-05-27T01:27:57.341Z,0.00
2023-05-27T01:31:10.791Z,0.00
2023-05-27T01:34:19.247Z,0.00
2023-05-27T01:37:24.501Z,0.00
2023-05-27T01:40:27.807Z,0.00
2023-05-27T01:43:30.060Z,0.00
2023-05-27T01:46:31.636Z,0.00
2023-05-27T01:49:33.342Z,0.00
2023-05-27T01:52:34.948Z,0.00
2023-05-27T01:55:36.613Z,0.00
2023-05-27T01:58:38.235Z,0.00
2023-05-27T02:01:41.038Z,0.00
2023-05-27T02:04:42.705Z,0.00
2023-05-27T02:07:44.361Z,0.00
2023-05-27T02:10:45.995Z,0.00
2023-05-27T02:13:47.685Z,0.00
2023-05-27T02:16:50.688Z,0.00
2023-05-27T02:19:52.482Z,0.00
2023-05-27T02:22:54.292Z,0.00
2023-05-27T02:25:56.323Z,0.00
2023-05-27T02:28:57.887Z,0.00
2023-05-27T02:31:59.517Z,0.00
2023-05-27T02:35:01.249Z,0.00
2023-05-27T02:38:02.968Z,0.00
2023-05-27T02:41:04.684Z,0.00
2023-05-27T02:44:06.697Z,0.00
2023-05-27T02:47:08.410Z,0.00
2023-05-27T02:50:10.414Z,0.00
2023-05-27T02:53:12.088Z,0.00
2023-05-27T02:56:13.699Z,0.00
2023-05-27T02:59:15.354Z,0.00
2023-05-27T03:02:17.080Z,0.00
2023-05-27T03:05:18.714Z,0.00
2023-05-27T03:08:20.390Z,0.00
2023-05-27T03:11:22.352Z,0.00
2023-05-27T03:14:24.183Z,0.00
2023-05-27T03:17:25.984Z,0.00
2023-05-27T03:20:27.585Z,0.00
2023-05-27T03:23:29.251Z,0.00
2023-05-27T03:26:31.284Z,0.00
2023-05-27T03:29:32.965Z,0.00
2023-05-27T03:32:35.056Z,0.00
2023-05-27T03:35:36.739Z,0.00
2023-05-27T03:38:38.391Z,0.00
2023-05-27T03:41:40.073Z,0.00
2023-05-27T03:44:41.693Z,0.00
2023-05-27T03:47:43.384Z,0.00
2023-05-27T03:50:44.970Z,0.00
2023-05-27T03:53:46.564Z,0.00
2023-05-27T03:56:48.203Z,0.00
2023-05-27T03:59:49.839Z,0.00
2023-05-27T04:02:51.607Z,0.00
2023-05-27T04:05:53.296Z,0.00
2023-05-27T04:08:54.957Z,0.00
2023-05-27T04:11:56.664Z,0.00
2023-05-27T04:14:58.909Z,0.00
2023-05-27T04:18:00.946Z,0.00
2023-05-27T04:21:02.610Z,0.00
2023-05-27T04:24:04.715Z,0.00
2023-05-27T04:27:06.444Z,0.00
2023-05-27T04:30:09.885Z,0.00
2023-05-27T04:33:12.518Z,0.00
2023-05-27T04:36:18.076Z,0.00
2023-05-27T04:39:19.877Z,0.00
2023-05-27T04:42:21.700Z,0.00
2023-05-27T04:45:23.365Z,0.00
2023-05-27T04:48:25.199Z,0.00
2023-05-27T04:51:27.190Z,0.00
2023-05-27T04:54:28.890Z,0.00
2023-05-27T04:57:30.562Z,0.00
2023-05-27T05:00:51.729Z,0.00
2023-05-27T05:04:03.755Z,0.00
2023-05-27T05:07:05.446Z,0.00
2023-05-27T05:10:08.741Z,0.00
2023-05-27T05:13:10.502Z,0.00
2023-05-27T05:16:12.216Z,0.00
2023-05-27T05:19:13.988Z,0.00
2023-05-27T05:22:15.580Z,0.00
2023-05-27T05:25:17.129Z,0.00
2023-05-27T05:28:18.713Z,0.00
2023-05-27T05:31:20.485Z,0.00
2023-05-27T05:34:22.104Z,0.00
2023-05-27T05:37:25.016Z,0.00
2023-05-27T05:40:26.726Z,0.00
2023-05-27T05:43:28.422Z,0.00
2023-05-27T05:46:30.264Z,0.00
2023-05-27T05:49:31.969Z,0.00
2023-05-27T05:52:33.599Z,0.00
2023-05-27T05:55:35.537Z,0.00
2023-05-27T05:58:37.215Z,0.00
2023-05-27T06:01:38.826Z,0.00
2023-05-27T06:04:40.476Z,0.00
2023-05-27T06:07:42.139Z,0.00
2023-05-27T06:10:43.791Z,0.00
2023-05-27T06:13:45.432Z,0.00
2023-05-27T06:16:47.027Z,0.00
2023-05-27T06:19:48.602Z,0.00
2023-05-27T06:22:50.282Z,0.00
2023-05-27T06:25:52.957Z,0.00
2023-05-27T06:28:54.627Z,0.00
2023-05-27T06:31:56.237Z,0.00
2023-05-27T06:34:57.920Z,55.63
2023-05-27T06:38:00.146Z,71.64
2023-05-27T06:41:01.822Z,70.20
2023-05-27T06:44:03.749Z,70.24
2023-05-27T06:47:05.706Z,70.72
2023-05-27T06:50:08.110Z,71.72
2023-05-27T06:53:11.616Z,71.36
2023-05-27T06:56:13.221Z,70.36
2023-05-27T06:59:14.781Z,69.01
2023-05-27T07:02:16.431Z,70.48
2023-05-27T07:05:18.018Z,71.48
2023-05-27T07:08:19.680Z,68.63
2023-05-27T07:11:21.658Z,71.48
2023-05-27T07:14:23.251Z,69.84
2023-05-27T07:17:24.912Z,71.24
2023-05-27T07:20:26.656Z,69.78
2023-05-27T07:23:28.351Z,72.43
2023-05-27T07:26:31.302Z,69.95
2023-05-27T07:29:32.953Z,66.91
2023-05-27T07:32:34.713Z,63.72
2023-05-27T07:35:36.367Z,63.85
2023-05-27T07:38:38.038Z,61.66
2023-05-27T07:41:39.833Z,61.58
2023-05-27T07:44:41.473Z,59.77
2023-05-27T07:47:43.168Z,60.34
2023-05-27T07:50:44.914Z,60.99
2023-05-27T07:53:46.566Z,59.50
2023-05-27T07:56:48.277Z,58.49
2023-05-27T07:59:50.412Z,57.38
2023-05-27T08:02:52.150Z,56.13
2023-05-27T08:05:55.294Z,54.79
2023-05-27T08:08:57.009Z,50.99
2023-05-27T08:11:58.832Z,53.17
2023-05-27T08:15:00.563Z,52.78
2023-05-27T08:18:02.880Z,52.76
2023-05-27T08:21:04.619Z,53.87
2023-05-27T08:24:06.505Z,52.79
2023-05-27T08:27:19.593Z,54.61
2023-05-27T08:30:21.352Z,50.61
2023-05-27T08:33:24.442Z,50.80
2023-05-27T08:36:26.147Z,50.38
2023-05-27T08:39:28.949Z,53.06
2023-05-27T08:42:30.717Z,48.18
2023-05-27T08:45:32.669Z,50.80
2023-05-27T08:48:34.429Z,50.47
2023-05-27T08:51:40.689Z,45.02
2023-05-27T08:54:43.330Z,47.78
2023-05-27T08:57:56.076Z,48.42
2023-05-27T09:00:58.246Z,46.17
2023-05-27T09:04:04.980Z,45.27
2023-05-27T09:07:07.077Z,47.12
2023-05-27T09:10:09.253Z,45.76
2023-05-27T09:13:10.920Z,45.73
2023-05-27T09:16:12.730Z,47.70
2023-05-27T09:19:18.804Z,45.58
2023-05-27T09:22:26.022Z,46.35
2023-05-27T09:25:29.109Z,46.75
2023-05-27T09:28:30.714Z,43.90
2023-05-27T09:31:32.416Z,45.66
2023-05-27T09:34:39.812Z,44.61
2023-05-27T09:37:42.151Z,43.15
2023-05-27T09:40:45.982Z,43.16
2023-05-27T09:43:55.044Z,42.69
2023-05-27T09:46:58.618Z,42.31
2023-05-27T09:50:00.878Z,38.97
2023-05-27T09:53:11.846Z,39.60
2023-05-27T09:56:14.531Z,41.31
2023-05-27T09:59:16.446Z,42.90
2023-05-27T10:02:21.338Z,42.89
2023-05-27T10:05:24.005Z,43.07
2023-05-27T10:08:27.100Z,41.04
2023-05-27T10:11:33.080Z,40.22
2023-05-27T10:14:35.069Z,38.71
2023-05-27T10:17:50.711Z,38.19
2023-05-27T10:20:52.935Z,37.25
2023-05-27T10:23:58.658Z,36.50
2023-05-27T10:27:07.088Z,35.06
2023-05-27T10:30:09.208Z,37.78
2023-05-27T10:33:11.085Z,33.68
2023-05-27T10:36:27.698Z,33.67
2023-05-27T10:39:30.184Z,34.03
2023-05-27T10:42:31.938Z,33.81
2023-05-27T10:45:35.047Z,33.25
2023-05-27T10:48:38.702Z,34.00
2023-05-27T10:51:41.066Z,32.50
2023-05-27T10:54:45.007Z,31.55
2023-05-27T10:57:48.063Z,32.05
2023-05-27T11:00:52.171Z,31.91
2023-05-27T11:03:55.353Z,32.00
2023-05-27T11:07:00.887Z,29.81
2023-05-27T11:10:06.639Z,30.95
2023-05-27T11:13:08.486Z,32.88
2023-05-27T11:16:10.942Z,28.15
2023-05-27T11:19:12.896Z,30.93
2023-05-27T11:22:15.988Z,31.30
2023-05-27T11:25:17.661Z,31.05
2023-05-27T11:28:19.269Z,30.07
2023-05-27T11:31:27.507Z,31.77
2023-05-27T11:34:29.343Z,30.03
2023-05-27T11:37:35.982Z,30.22
2023-05-27T11:40:40.400Z,33.27
2023-05-27T11:43:59.347Z,31.73
2023-05-27T11:47:01.842Z,33.22
2023-05-27T11:50:04.100Z,34.91
2023-05-27T11:53:05.736Z,34.75
2023-05-27T11:56:07.564Z,33.06
2023-05-27T11:59:09.251Z,32.58
2023-05-27T12:02:10.992Z,31.57
2023-05-27T12:05:18.493Z,31.01
2023-05-27T12:08:27.619Z,33.02
2023-05-27T12:11:29.264Z,31.99
2023-05-27T12:14:30.835Z,33.24
2023-05-27T12:17:32.436Z,34.70
2023-05-27T12:20:34.034Z,34.54
2023-05-27T12:23:35.857Z,35.26
2023-05-27T12:26:38.435Z,33.24
2023-05-27T12:29:40.012Z,34.47
2023-05-27T12:32:43.123Z,30.94
2023-05-27T12:35:45.051Z,29.78
2023-05-27T12:38:46.760Z,29.25
2023-05-27T12:41:48.741Z,30.86
2023-05-27T12:44:50.421Z,30.70
2023-05-27T12:47:52.123Z,30.35
2023-05-27T12:50:54.125Z,32.89
2023-05-27T12:53:55.692Z,36.90
2023-05-27T12:56:57.345Z,38.87
2023-05-27T12:59:58.910Z,38.53
2023-05-27T13:03:00.582Z,39.70
2023-05-27T13:06:02.263Z,40.39
2023-05-27T13:09:05.089Z,41.07
2023-05-27T13:12:07.254Z,41.31
2023-05-27T13:15:10.133Z,42.62
2023-05-27T13:18:11.856Z,43.77
2023-05-27T13:21:13.593Z,40.95
2023-05-27T13:24:15.192Z,42.14
2023-05-27T13:27:16.852Z,40.22
2023-05-27T13:30:18.755Z,35.16
2023-05-27T13:33:20.454Z,33.41
2023-05-27T13:36:22.062Z,31.21
2023-05-27T13:39:23.649Z,32.71
2023-05-27T13:42:25.722Z,34.03
2023-05-27T13:45:28.113Z,36.06
2023-05-27T13:48:30.778Z,35.76
2023-05-27T13:51:33.292Z,35.23
2023-05-27T13:54:34.999Z,37.29
2023-05-27T13:57:36.652Z,38.16
2023-05-27T14:00:38.350Z,36.42
2023-05-27T14:03:39.917Z,35.27
2023-05-27T14:06:41.773Z,36.30
2023-05-27T14:09:43.498Z,35.95
2023-05-27T14:12:45.084Z,34.22
2023-05-27T14:15:46.859Z,38.11
2023-05-27T14:18:48.731Z,35.80
2023-05-27T14:21:50.393Z,34.31
2023-05-27T14:24:52.214Z,34.07
2023-05-27T14:27:53.820Z,34.67
2023-05-27T14:30:55.621Z,35.27
2023-05-27T14:33:57.357Z,35.55
2023-05-27T14:36:59.029Z,34.55
2023-05-27T14:40:00.735Z,35.41
2023-05-27T14:43:02.862Z,39.85
2023-05-27T14:46:04.538Z,41.66
2023-05-27T14:49:06.467Z,41.35
2023-05-27T14:52:08.141Z,40.65
2023-05-27T14:55:10.486Z,39.61
2023-05-27T14:58:12.388Z,41.76
2023-05-27T15:01:15.985Z,42.89
2023-05-27T15:04:18.515Z,45.39
2023-05-27T15:07:23.523Z,46.82
2023-05-27T15:10:25.559Z,46.85
2023-05-27T15:13:27.286Z,47.16
2023-05-27T15:16:29.350Z,48.06
2023-05-27T15:19:31.462Z,48.08
2023-05-27T15:22:33.105Z,49.54
2023-05-27T15:25:37.253Z,48.26
2023-05-27T15:28:39.038Z,48.94
2023-05-27T15:31:40.883Z,50.15
2023-05-27T15:34:42.565Z,48.81
2023-05-27T15:37:44.223Z,49.53
2023-05-27T15:40:46.116Z,48.57
2023-05-27T15:43:47.791Z,47.60
2023-05-27T15:46:49.439Z,43.25
2023-05-27T15:49:51.246Z,39.86
2023-05-27T15:52:52.841Z,39.40
2023-05-27T15:55:54.550Z,42.59
2023-05-27T15:58:56.549Z,43.90
2023-05-27T16:01:58.186Z,44.31
2023-05-27T16:04:59.886Z,45.12
2023-05-27T16:08:01.498Z,41.60
2023-05-27T16:11:03.084Z,42.51
2023-05-27T16:14:04.722Z,38.42
2023-05-27T16:17:06.727Z,38.40
2023-05-27T16:20:08.697Z,36.78
2023-05-27T16:23:10.327Z,35.93
2023-05-27T16:26:11.925Z,36.24
2023-05-27T16:29:13.597Z,35.89
2023-05-27T16:32:15.622Z,37.09
2023-05-27T16:35:17.314Z,36.28
2023-05-27T16:38:20.062Z,34.98
2023-05-27T16:41:22.971Z,36.89
2023-05-27T16:44:24.559Z,38.67
2023-05-27T16:47:26.634Z,37.94
2023-05-27T16:50:28.462Z,40.60
2023-05-27T16:53:30.440Z,42.08
2023-05-27T16:56:32.100Z,44.52
2023-05-27T16:59:33.805Z,44.36
2023-05-27T17:02:36.196Z,44.18
2023-05-27T17:05:38.124Z,45.13
2023-05-27T17:08:39.765Z,45.17
2023-05-27T17:11:41.412Z,47.43
2023-05-27T17:14:44.674Z,46.35
2023-05-27T17:17:46.317Z,47.15
2023-05-27T17:20:48.202Z,47.34
2023-05-27T17:23:49.880Z,48.17
2023-05-27T17:26:51.619Z,48.24
2023-05-27T17:29:53.645Z,49.00
2023-05-27T17:32:55.593Z,49.66
2023-05-27T17:35:57.363Z,49.76
2023-05-27T17:38:59.736Z,49.79
2023-05-27T17:42:01.786Z,51.92
2023-05-27T17:45:03.637Z,51.37
2023-05-27T17:48:05.383Z,52.10
2023-05-27T17:51:07.433Z,52.18
2023-05-27T17:57:11.338Z,51.99
2023-05-27T18:00:13.714Z,52.51
2023-05-27T18:03:15.558Z,52.32
2023-05-27T18:06:17.291Z,52.76
2023-05-27T18:09:18.916Z,53.45
2023-05-27T18:12:20.574Z,53.40
2023-05-27T18:15:22.330Z,54.38
2023-05-27T18:18:24.240Z,54.91
2023-05-27T18:21:26.217Z,57.90
2023-05-27T18:24:27.889Z,57.52
2023-05-27T18:27:29.486Z,57.95
2023-05-27T18:30:31.315Z,57.65
2023-05-27T18:33:33.002Z,59.23
2023-05-27T18:36:34.742Z,60.46
2023-05-27T18:39:36.358Z,61.60
2023-05-27T18:42:39.110Z,61.73
2023-05-27T18:45:53.887Z,63.40
2023-05-27T18:48:55.580Z,64.22
2023-05-27T18:51:57.205Z,64.28
2023-05-27T18:54:58.794Z,63.19
2023-05-27T18:58:00.571Z,67.09
2023-05-27T19:01:02.298Z,65.14
2023-05-27T19:04:04.028Z,63.39
2023-05-27T19:07:05.888Z,64.24
2023-05-27T19:10:07.993Z,65.35
2023-05-27T19:13:09.910Z,66.57
2023-05-27T19:16:11.668Z,65.14
2023-05-27T19:19:13.305Z,65.57
2023-05-27T19:22:17.688Z,65.01
2023-05-27T19:25:19.422Z,64.52
2023-05-27T19:28:21.042Z,67.35
2023-05-27T19:31:22.775Z,67.12
2023-05-27T19:34:24.691Z,68.51
2023-05-27T19:37:26.419Z,69.50
2023-05-27T19:40:28.166Z,69.37
2023-05-27T19:43:30.088Z,69.67
2023-05-27T19:46:31.762Z,70.78
2023-05-27T19:49:33.451Z,70.76
2023-05-27T19:52:35.077Z,69.28
2023-05-27T19:55:36.966Z,69.29
2023-05-27T19:58:38.616Z,67.36
2023-05-27T20:01:40.441Z,67.64
2023-05-27T20:04:42.152Z,65.86
2023-05-27T20:07:43.927Z,65.62
2023-05-27T20:10:45.727Z,65.61
2023-05-27T20:13:47.374Z,65.36
2023-05-27T20:16:49.150Z,65.29
2023-05-27T20:19:51.098Z,65.21
2023-05-27T20:22:52.740Z,65.26
2023-05-27T20:25:54.591Z,65.27
2023-05-27T20:28:56.351Z,63.83
2023-05-27T20:31:57.983Z,65.01
2023-05-27T20:34:59.592Z,65.74
2023-05-27T20:38:01.189Z,64.59
2023-05-27T20:41:05.875Z,63.80
2023-05-27T20:44:08.170Z,65.11
2023-05-27T20:47:10.864Z,66.50
2023-05-27T20:50:12.659Z,65.57
2023-05-27T20:53:14.352Z,68.42
2023-05-27T20:56:16.134Z,67.91
2023-05-27T20:59:18.088Z,69.19
2023-05-27T21:02:19.801Z,66.80
2023-05-27T21:05:21.490Z,68.88
2023-05-27T21:08:23.104Z,68.43
2023-05-27T21:11:24.681Z,70.93
2023-05-27T21:14:26.355Z,69.33
2023-05-27T21:17:28.067Z,68.23
2023-05-27T21:20:30.000Z,66.46
2023-05-27T21:23:31.746Z,69.08
2023-05-27T21:26:34.009Z,69.00
2023-05-27T21:29:35.704Z,69.57
2023-05-27T21:32:37.562Z,68.25
2023-05-27T21:35:40.584Z,68.21
2023-05-27T21:38:45.356Z,70.69
2023-05-27T21:41:47.006Z,70.26
2023-05-27T21:44:50.958Z,69.26
2023-05-27T21:47:52.772Z,68.61
2023-05-27T21:50:54.526Z,70.99
2023-05-27T21:53:57.928Z,70.73
2023-05-27T21:56:59.636Z,71.56
2023-05-27T22:00:03.548Z,72.66
2023-05-27T22:03:06.204Z,70.68
2023-05-27T22:06:08.374Z,70.10
2023-05-27T22:09:12.097Z,70.44
2023-05-27T22:12:15.468Z,71.90
2023-05-27T22:15:17.209Z,73.32
2023-05-27T22:18:18.820Z,72.87
2023-05-27T22:21:28.704Z,72.11
2023-05-27T22:24:32.138Z,70.74
2023-05-27T22:27:34.629Z,72.01
2023-05-27T22:30:36.414Z,72.19
2023-05-27T22:33:38.071Z,75.52
2023-05-27T22:36:40.038Z,72.39
2023-05-27T22:39:41.811Z,72.17
2023-05-27T22:42:43.488Z,75.68
2023-05-27T22:45:45.089Z,74.27
2023-05-27T22:48:47.025Z,73.43
2023-05-27T22:51:48.681Z,74.48
2023-05-27T22:54:50.374Z,74.86
2023-05-27T22:57:51.956Z,74.73
2023-05-27T23:00:53.524Z,72.47
2023-05-27T23:03:55.306Z,72.38
2023-05-27T23:06:57.010Z,72.26
2023-05-27T23:09:58.770Z,72.60
2023-05-27T23:13:00.374Z,72.44
2023-05-27T23:16:08.792Z,71.00
2023-05-27T23:19:11.675Z,71.99
2023-05-27T23:22:13.339Z,72.68
2023-05-27T23:25:15.029Z,74.13
2023-05-27T23:28:16.643Z,78.32
2023-05-27T23:31:18.360Z,79.36
2023-05-27T23:34:20.662Z,79.42
2023-05-27T23:37:22.255Z,78.49
2023-05-27T23:40:23.896Z,79.41
2023-05-27T23:43:28.317Z,81.46
2023-05-27T23:46:29.992Z,79.71
2023-05-27T23:49:31.640Z,79.17
2023-05-27T23:52:33.209Z,82.68
2023-05-27T23:55:34.788Z,79.58
2023-05-27T23:58:36.390Z,80.83
